createdAt,value
2018-12-31T00:04:31.197Z,101192.02
2018-12-31T00:07:02.576Z,101198.05
2018-12-31T00:09:32.106Z,101197.44
2018-12-31T00:12:01.591Z,101203.27
2018-12-31T00:14:31.010Z,101206.92
2018-12-31T00:17:00.463Z,101200.81
2018-12-31T00:19:29.916Z,101201.24
2018-12-31T00:21:59.357Z,101204.50
2018-12-31T00:24:28.817Z,101211.42
2018-12-31T00:26:58.615Z,101204.91
2018-12-31T00:29:28.429Z,101211.05
2018-12-31T00:32:37.932Z,101210.64
2018-12-31T00:35:07.676Z,101218.31
2018-12-31T00:37:39.074Z,101221.27
2018-12-31T00:40:08.871Z,101221.70
2018-12-31T00:42:38.335Z,101224.96
2018-12-31T00:45:07.889Z,101235.48
2018-12-31T00:47:37.348Z,101242.92
2018-12-31T00:50:06.829Z,101226.00
2018-12-31T00:52:36.597Z,101236.09
2018-12-31T00:55:06.171Z,101242.20
2018-12-31T00:57:35.630Z,101253.81
2018-12-31T01:00:45.156Z,101261.05
2018-12-31T01:03:14.635Z,101262.98
2018-12-31T01:05:44.469Z,101257.48
2018-12-31T01:14:38.917Z,101255.32
2018-12-31T01:17:08.360Z,101246.55
2018-12-31T01:19:37.817Z,101251.55
2018-12-31T01:22:26.647Z,101252.79
2018-12-31T01:24:56.113Z,101261.73
2018-12-31T01:27:25.562Z,101255.11
2018-12-31T01:29:55.036Z,101253.78
2018-12-31T01:32:24.490Z,101253.35
2018-12-31T01:34:53.977Z,101248.56
2018-12-31T01:37:43.134Z,101253.16
2018-12-31T01:40:31.936Z,101246.72
2018-12-31T01:43:01.678Z,101247.23
2018-12-31T01:45:31.124Z,101239.27
2018-12-31T01:48:00.573Z,101240.08
2018-12-31T01:50:30.385Z,101250.50
2018-12-31T01:52:59.827Z,101252.52
2018-12-31T01:55:29.360Z,101246.81
2018-12-31T01:57:58.819Z,101237.75
2018-12-31T02:00:28.283Z,101238.84
2018-12-31T02:02:57.738Z,101245.39
2018-12-31T02:05:27.518Z,101248.27
2018-12-31T02:07:58.608Z,101258.66
2018-12-31T02:10:28.049Z,101249.69
2018-12-31T02:13:16.850Z,101248.13
2018-12-31T02:15:46.313Z,101255.28
2018-12-31T02:18:15.776Z,101257.33
2018-12-31T02:20:45.234Z,101256.23
2018-12-31T02:23:34.082Z,101260.33
2018-12-31T02:26:03.924Z,101260.61
2018-12-31T02:28:33.377Z,101252.16
2018-12-31T02:31:02.866Z,101258.28
2018-12-31T02:33:32.329Z,101258.05
2018-12-31T02:38:55.806Z,101265.44
2018-12-31T02:41:25.268Z,101282.69
2018-12-31T02:43:54.712Z,101277.14
2018-12-31T02:46:24.429Z,101282.26
2018-12-31T02:48:53.887Z,101274.30
2018-12-31T02:51:23.345Z,101278.38
2018-12-31T02:53:53.074Z,101267.86
2018-12-31T02:56:22.545Z,101268.80
2018-12-31T02:58:52.023Z,101268.98
2018-12-31T03:01:21.436Z,101276.77
2018-12-31T03:03:50.881Z,101271.84
2018-12-31T03:06:20.349Z,101266.76
2018-12-31T03:08:50.095Z,101266.15
2018-12-31T03:11:19.547Z,101262.37
2018-12-31T03:13:49.002Z,101268.48
2018-12-31T03:16:18.453Z,101266.87
2018-12-31T03:18:47.893Z,101279.19
2018-12-31T03:21:17.406Z,101262.55
2018-12-31T03:23:47.076Z,101260.70
2018-12-31T03:26:35.939Z,101258.38
2018-12-31T03:29:05.691Z,101259.70
2018-12-31T03:31:35.528Z,101267.66
2018-12-31T03:34:24.322Z,101272.54
2018-12-31T03:36:53.762Z,101270.31
2018-12-31T03:39:23.219Z,101277.04
2018-12-31T03:41:52.675Z,101279.88
2018-12-31T03:44:22.143Z,101278.17
2018-12-31T03:47:12.297Z,101274.19
2018-12-31T03:50:01.477Z,101272.86
2018-12-31T03:52:31.194Z,101283.77
2018-12-31T03:55:20.065Z,101280.82
2018-12-31T03:57:49.514Z,101279.59
2018-12-31T04:00:38.418Z,101277.13
2018-12-31T04:03:29.185Z,101283.86
2018-12-31T04:05:58.649Z,101283.86
2018-12-31T04:08:47.426Z,101291.02
2018-12-31T04:11:18.517Z,101300.20
2018-12-31T04:13:48.225Z,101282.80
2018-12-31T04:16:17.926Z,101285.45
2018-12-31T04:18:47.373Z,101282.00
2018-12-31T04:21:16.828Z,101289.94
2018-12-31T04:23:46.270Z,101297.19
2018-12-31T04:26:15.737Z,101297.48
2018-12-31T04:28:45.184Z,101303.72
2018-12-31T04:31:15.027Z,101301.95
2018-12-31T04:33:44.465Z,101302.05
2018-12-31T04:36:14.171Z,101308.17
2018-12-31T04:38:43.625Z,101304.98
2018-12-31T04:41:13.098Z,101305.83
2018-12-31T04:44:02.142Z,101303.89
2018-12-31T04:46:31.611Z,101301.01
2018-12-31T04:49:01.055Z,101297.86
2018-12-31T04:51:30.594Z,101296.39
2018-12-31T04:54:19.472Z,101298.94
2018-12-31T04:57:08.296Z,101303.96
2018-12-31T04:59:37.753Z,101299.75
2018-12-31T05:02:07.489Z,101301.48
2018-12-31T05:04:36.938Z,101301.25
2018-12-31T05:07:06.478Z,101297.90
2018-12-31T05:09:36.206Z,101304.97
2018-12-31T05:12:05.808Z,101301.94
2018-12-31T05:14:56.359Z,101306.20
2018-12-31T05:17:25.821Z,101317.44
2018-12-31T05:20:14.659Z,101312.94
2018-12-31T05:22:44.114Z,101298.33
2018-12-31T05:25:13.832Z,101299.38
2018-12-31T05:27:43.577Z,101300.29
2018-12-31T05:30:13.033Z,101300.81
2018-12-31T05:33:01.880Z,101305.31
2018-12-31T05:35:31.582Z,101307.97
2018-12-31T05:38:01.043Z,101314.98
2018-12-31T05:40:30.574Z,101311.00
2018-12-31T05:43:00.020Z,101312.56
2018-12-31T05:45:48.886Z,101309.38
2018-12-31T05:48:18.347Z,101301.94
2018-12-31T05:51:07.528Z,101298.95
2018-12-31T05:53:37.249Z,101303.89
2018-12-31T05:56:06.738Z,101298.88
2018-12-31T05:58:36.466Z,101310.30
2018-12-31T06:01:06.266Z,101310.53
2018-12-31T06:03:35.715Z,101309.70
2018-12-31T06:06:06.803Z,101312.26
2018-12-31T06:08:37.908Z,101311.97
2018-12-31T06:11:07.340Z,101315.95
2018-12-31T06:13:37.132Z,101309.11
2018-12-31T06:16:06.603Z,101311.97
2018-12-31T06:18:36.048Z,101319.41
2018-12-31T06:21:07.130Z,101316.77
2018-12-31T06:23:36.839Z,101316.77
2018-12-31T06:26:06.354Z,101322.16
2018-12-31T06:28:35.809Z,101320.64
2018-12-31T06:31:05.280Z,101328.60
2018-12-31T06:33:34.735Z,101323.38
2018-12-31T06:36:23.527Z,101331.34
2018-12-31T06:38:53.005Z,101328.17
2018-12-31T06:41:22.832Z,101344.72
2018-12-31T06:43:52.311Z,101337.65
2018-12-31T06:46:22.028Z,101341.72
2018-12-31T06:48:51.856Z,101347.64
2018-12-31T06:54:16.888Z,101363.90
2018-12-31T06:56:46.348Z,101367.97
2018-12-31T06:59:15.794Z,101368.06
2018-12-31T07:01:45.581Z,101371.33
2018-12-31T07:04:15.396Z,101356.81
2018-12-31T07:06:45.206Z,101359.55
2018-12-31T07:09:14.841Z,101366.08
2018-12-31T07:11:44.627Z,101365.77
2018-12-31T07:14:14.171Z,101366.69
2018-12-31T07:16:43.899Z,101364.12
2018-12-31T07:19:13.613Z,101366.55
2018-12-31T07:21:43.067Z,101375.94
2018-12-31T07:24:12.538Z,101376.26
2018-12-31T07:26:42.002Z,101374.84
2018-12-31T07:29:11.465Z,101381.05
2018-12-31T07:31:40.920Z,101389.02
2018-12-31T07:34:10.477Z,101404.77
2018-12-31T07:36:40.195Z,101395.03
2018-12-31T07:39:10.111Z,101396.97
2018-12-31T07:41:39.591Z,101394.11
2018-12-31T07:44:09.061Z,101398.68
2018-12-31T07:46:38.534Z,101392.96
2018-12-31T07:49:07.996Z,101393.05
2018-12-31T07:51:37.451Z,101392.94
2018-12-31T07:54:06.933Z,101394.92
2018-12-31T07:56:56.102Z,101397.59
2018-12-31T07:59:25.563Z,101392.76
2018-12-31T08:01:55.275Z,101391.95
2018-12-31T08:04:44.066Z,101392.84
2018-12-31T08:07:13.523Z,101391.31
2018-12-31T08:10:02.340Z,101394.34
2018-12-31T08:12:31.811Z,101392.73
2018-12-31T08:15:01.270Z,101401.16
2018-12-31T08:17:50.426Z,101406.04
2018-12-31T08:20:20.266Z,101408.27
2018-12-31T08:22:49.750Z,101398.83
2018-12-31T08:25:19.221Z,101401.25
2018-12-31T08:27:48.945Z,101400.94
2018-12-31T08:30:18.944Z,101410.48
2018-12-31T08:33:08.942Z,101419.44
2018-12-31T08:35:38.721Z,101412.54
2018-12-31T08:38:09.804Z,101415.52
2018-12-31T08:40:39.557Z,101411.27
2018-12-31T08:43:28.405Z,101410.23
2018-12-31T08:46:17.230Z,101408.72
2018-12-31T08:48:47.029Z,101409.31
2018-12-31T08:51:16.564Z,101411.19
2018-12-31T08:53:46.202Z,101421.11
2018-12-31T08:56:15.664Z,101418.24
2018-12-31T08:58:45.150Z,101409.66
2018-12-31T09:01:14.618Z,101415.05
2018-12-31T09:03:44.193Z,101409.87
2018-12-31T09:06:32.982Z,101412.67
2018-12-31T09:11:42.015Z,101413.13
2018-12-31T09:14:11.570Z,101416.39
2018-12-31T09:17:00.383Z,101415.11
2018-12-31T09:19:31.544Z,101422.73
2018-12-31T09:22:01.294Z,101429.70
2018-12-31T09:27:46.102Z,101418.39
2018-12-31T09:30:15.690Z,101415.16
2018-12-31T09:32:45.505Z,101419.09
2018-12-31T09:35:15.053Z,101413.77
2018-12-31T09:37:44.532Z,101411.17
2018-12-31T09:40:14.313Z,101412.13
2018-12-31T09:42:44.022Z,101410.34
2018-12-31T09:45:32.866Z,101413.39
2018-12-31T09:48:02.335Z,101403.40
2018-12-31T09:50:33.719Z,101405.09
2018-12-31T09:53:03.347Z,101400.73
2018-12-31T09:55:32.819Z,101399.61
2018-12-31T09:58:02.265Z,101402.87
2018-12-31T10:00:31.800Z,101402.48
2018-12-31T10:03:01.255Z,101403.35
2018-12-31T10:05:30.790Z,101398.92
2018-12-31T10:08:00.251Z,101396.20
2018-12-31T10:10:29.782Z,101402.80
2018-12-31T10:12:59.572Z,101402.72
2018-12-31T10:15:29.058Z,101398.87
2018-12-31T10:17:58.515Z,101401.14
2018-12-31T10:20:28.358Z,101397.39
2018-12-31T10:23:17.165Z,101401.88
2018-12-31T10:25:47.006Z,101394.31
2018-12-31T10:28:16.803Z,101398.91
2018-12-31T10:30:46.549Z,101398.02
2018-12-31T10:33:16.003Z,101390.47
2018-12-31T10:35:45.835Z,101386.59
2018-12-31T10:38:15.275Z,101382.58
2018-12-31T10:40:44.763Z,101376.59
2018-12-31T10:43:14.215Z,101383.70
2018-12-31T10:45:43.681Z,101381.81
2018-12-31T10:48:13.155Z,101373.94
2018-12-31T10:50:42.653Z,101381.32
2018-12-31T10:53:12.101Z,101379.67
2018-12-31T10:55:41.906Z,101375.91
2018-12-31T10:58:11.354Z,101372.66
2018-12-31T11:00:40.830Z,101374.98
2018-12-31T11:03:10.289Z,101372.69
2018-12-31T11:05:40.094Z,101371.48
2018-12-31T11:08:10.556Z,101372.87
2018-12-31T11:11:00.514Z,101366.61
2018-12-31T11:13:30.336Z,101366.27
2018-12-31T11:15:59.791Z,101365.03
2018-12-31T11:18:31.250Z,101360.38
2018-12-31T11:23:56.726Z,101353.73
2018-12-31T11:26:27.843Z,101354.02
2018-12-31T11:28:57.314Z,101363.23
2018-12-31T11:31:30.377Z,101361.92
2018-12-31T11:34:36.640Z,101358.07
2018-12-31T11:37:06.090Z,101362.38
2018-12-31T11:39:35.664Z,101350.16
2018-12-31T11:42:05.454Z,101352.67
2018-12-31T11:44:35.242Z,101358.66
2018-12-31T11:47:04.743Z,101353.45
2018-12-31T11:49:34.280Z,101352.27
2018-12-31T11:52:03.803Z,101353.13
2018-12-31T11:54:33.277Z,101351.95
2018-12-31T11:57:02.718Z,101344.55
2018-12-31T11:59:32.184Z,101343.14
2018-12-31T12:02:01.626Z,101341.35
2018-12-31T12:04:31.087Z,101335.86
2018-12-31T12:07:00.611Z,101334.50
2018-12-31T12:09:49.463Z,101323.91
2018-12-31T12:12:39.993Z,101327.87
2018-12-31T12:15:28.792Z,101328.17
2018-12-31T12:18:19.322Z,101329.59
2018-12-31T12:21:08.141Z,101327.20
2018-12-31T12:23:58.682Z,101329.45
2018-12-31T12:26:28.390Z,101335.90
2018-12-31T12:28:59.474Z,101321.91
2018-12-31T12:31:29.284Z,101331.62
2018-12-31T12:33:58.734Z,101332.30
2018-12-31T12:36:28.240Z,101332.40
2018-12-31T12:38:57.675Z,101331.84
2018-12-31T12:41:27.157Z,101322.44
2018-12-31T12:44:17.717Z,101330.81
2018-12-31T12:46:47.576Z,101330.16
2018-12-31T12:49:17.094Z,101336.64
2018-12-31T12:51:46.583Z,101338.63
2018-12-31T12:54:16.484Z,101342.20
2018-12-31T12:57:05.693Z,101342.70
2018-12-31T12:59:35.164Z,101338.70
2018-12-31T13:02:05.001Z,101340.28
2018-12-31T13:04:34.450Z,101335.25
2018-12-31T13:07:03.941Z,101333.64
2018-12-31T13:09:33.434Z,101334.97
2018-12-31T13:12:02.875Z,101340.65
2018-12-31T13:14:51.781Z,101333.70
2018-12-31T13:17:21.272Z,101335.16
2018-12-31T13:19:50.763Z,101337.98
2018-12-31T13:22:39.802Z,101337.02
2018-12-31T13:25:09.260Z,101341.95
2018-12-31T13:27:38.711Z,101341.11
2018-12-31T13:30:10.536Z,101339.38
2018-12-31T13:32:58.709Z,101336.14
2018-12-31T13:35:47.701Z,101326.28
2018-12-31T13:38:36.529Z,101333.30
2018-12-31T13:41:06.046Z,101331.21
2018-12-31T13:43:35.517Z,101334.50
2018-12-31T13:46:04.976Z,101335.49
2018-12-31T13:48:34.413Z,101323.46
2018-12-31T13:51:03.879Z,101330.62
2018-12-31T13:53:33.334Z,101327.25
2018-12-31T13:56:02.818Z,101335.84
2018-12-31T14:04:42.014Z,101330.88
2018-12-31T14:07:11.814Z,101331.03
2018-12-31T14:10:02.407Z,101335.03
2018-12-31T14:12:32.248Z,101333.39
2018-12-31T14:15:01.714Z,101330.91
2018-12-31T14:17:31.443Z,101336.23
2018-12-31T14:20:00.909Z,101331.34
2018-12-31T14:22:30.371Z,101326.69
2018-12-31T14:24:59.819Z,101331.21
2018-12-31T14:27:48.671Z,101334.69
2018-12-31T14:30:18.137Z,101338.41
2018-12-31T14:32:47.587Z,101338.55
2018-12-31T14:35:17.046Z,101332.07
2018-12-31T14:41:19.953Z,101346.81
2018-12-31T14:43:49.447Z,101343.62
2018-12-31T14:46:57.646Z,101343.84
2018-12-31T14:49:27.105Z,101346.81
2018-12-31T14:51:56.653Z,101350.08
2018-12-31T14:54:26.092Z,101347.34
2018-12-31T14:56:55.586Z,101342.96
2018-12-31T14:59:25.047Z,101342.37
2018-12-31T15:01:54.537Z,101347.48
2018-12-31T15:04:23.994Z,101351.63
2018-12-31T15:06:53.808Z,101362.44
2018-12-31T15:09:23.268Z,101363.56
2018-12-31T15:11:52.726Z,101360.89
2018-12-31T15:14:22.189Z,101360.89
2018-12-31T15:16:51.667Z,101359.56
2018-12-31T15:19:40.525Z,101354.69
2018-12-31T15:22:10.007Z,101348.52
2018-12-31T15:24:39.529Z,101351.12
2018-12-31T15:27:09.025Z,101353.78
2018-12-31T15:29:38.508Z,101356.31
2018-12-31T15:32:08.071Z,101356.02
2018-12-31T15:34:37.547Z,101352.24
2018-12-31T15:37:26.357Z,101350.38
2018-12-31T15:40:16.928Z,101349.79
2018-12-31T15:43:06.157Z,101354.84
2018-12-31T15:46:20.153Z,101358.38
2018-12-31T15:49:07.016Z,101353.58
2018-12-31T15:51:55.853Z,101356.23
2018-12-31T15:54:25.306Z,101359.71
2018-12-31T15:57:15.847Z,101361.78
2018-12-31T15:59:45.299Z,101357.72
2018-12-31T16:02:14.854Z,101366.55
2018-12-31T16:04:44.298Z,101351.13
2018-12-31T16:07:13.754Z,101356.63
2018-12-31T16:10:02.665Z,101359.57
2018-12-31T16:12:32.126Z,101358.09
2018-12-31T16:15:22.663Z,101347.19
2018-12-31T16:18:11.501Z,101352.62
2018-12-31T16:21:02.069Z,101352.02
2018-12-31T16:24:11.922Z,101346.77
2018-12-31T16:29:54.949Z,101348.16
2018-12-31T16:32:24.506Z,101360.76
2018-12-31T16:34:53.969Z,101365.63
2018-12-31T16:37:23.453Z,101360.69
2018-12-31T16:40:13.999Z,101360.69
2018-12-31T16:42:43.497Z,101350.77
2018-12-31T16:45:12.954Z,101357.05
2018-12-31T16:48:01.786Z,101353.89
2018-12-31T16:50:50.602Z,101350.98
2018-12-31T16:56:34.034Z,101348.31
2018-12-31T16:59:24.941Z,101346.39
2018-12-31T17:01:54.413Z,101350.38
2018-12-31T17:04:24.236Z,101352.38
2018-12-31T17:06:53.707Z,101351.82
2018-12-31T17:09:42.558Z,101348.98
2018-12-31T17:12:12.022Z,101351.05
2018-12-31T17:14:41.830Z,101348.91
2018-12-31T17:17:12.069Z,101348.03
2018-12-31T17:19:41.538Z,101347.05
2018-12-31T17:22:11.273Z,101343.58
2018-12-31T17:24:40.743Z,101345.23
2018-12-31T17:27:10.203Z,101343.66
2018-12-31T17:30:00.793Z,101337.90
2018-12-31T17:32:30.279Z,101340.98
2018-12-31T17:34:59.736Z,101348.98
2018-12-31T17:37:29.237Z,101349.44
2018-12-31T17:39:58.691Z,101350.77
2018-12-31T17:42:28.175Z,101353.79
2018-12-31T17:48:07.117Z,101349.72
2018-12-31T17:50:55.947Z,101349.79
2018-12-31T17:53:46.494Z,101343.58
2018-12-31T17:56:15.947Z,101338.71
2018-12-31T17:59:04.783Z,101342.25
2018-12-31T18:01:34.238Z,101340.85
2018-12-31T18:04:03.798Z,101334.44
2018-12-31T18:06:33.262Z,101335.91
2018-12-31T18:09:22.107Z,101337.09
2018-12-31T18:14:41.676Z,101325.32
2018-12-31T18:17:11.588Z,101323.92
2018-12-31T18:20:00.447Z,101329.31
2018-12-31T18:22:29.930Z,101321.85
2018-12-31T18:25:19.000Z,101325.78
2018-12-31T18:28:07.830Z,101324.13
2018-12-31T18:30:37.323Z,101332.19
2018-12-31T18:33:06.950Z,101330.27
2018-12-31T18:35:36.777Z,101328.20
2018-12-31T18:38:06.264Z,101334.26
2018-12-31T18:40:35.707Z,101334.26
2018-12-31T18:43:26.250Z,101337.45
2018-12-31T18:45:55.708Z,101335.70
2018-12-31T18:48:44.859Z,101336.50
2018-12-31T18:54:03.032Z,101330.80
2018-12-31T18:56:52.205Z,101331.11
2018-12-31T18:59:41.064Z,101331.59
2018-12-31T19:02:10.515Z,101328.52
2018-12-31T19:05:20.828Z,101338.58
2018-12-31T19:08:09.411Z,101342.25
2018-12-31T19:10:39.200Z,101346.32
2018-12-31T19:13:27.780Z,101347.75
2018-12-31T19:15:57.682Z,101345.58
2018-12-31T19:18:46.539Z,101345.58
2018-12-31T19:21:15.994Z,101347.52
2018-12-31T19:23:45.800Z,101339.52
2018-12-31T19:26:15.246Z,101335.00
2018-12-31T19:28:57.212Z,101330.12
2018-12-31T19:31:26.678Z,101317.85
2018-12-31T19:33:56.157Z,101304.53
2018-12-31T19:36:25.619Z,101304.95
2018-12-31T19:38:56.735Z,101307.09
2018-12-31T19:41:26.188Z,101310.80
2018-12-31T19:43:55.655Z,101306.00
2018-12-31T19:46:44.775Z,101313.53
2018-12-31T19:55:03.265Z,101311.68
2018-12-31T19:57:33.099Z,101316.19
2018-12-31T20:00:02.760Z,101309.67
2018-12-31T20:05:20.672Z,101307.39
2018-12-31T20:08:09.526Z,101312.41
2018-12-31T20:10:38.979Z,101301.68
2018-12-31T20:13:10.078Z,101312.20
2018-12-31T20:15:39.538Z,101302.27
2018-12-31T20:18:30.084Z,101299.61
2018-12-31T20:21:18.918Z,101306.48
2018-12-31T20:24:07.516Z,101301.53
2018-12-31T20:26:56.383Z,101301.39
2018-12-31T20:29:25.876Z,101297.60
2018-12-31T20:31:55.336Z,101300.48
2018-12-31T20:34:24.811Z,101299.39
2018-12-31T20:37:13.653Z,101294.06
2018-12-31T20:40:02.523Z,101287.16
2018-12-31T20:42:31.976Z,101282.35
2018-12-31T20:45:21.143Z,101290.20
2018-12-31T20:48:31.318Z,101286.07
2018-12-31T20:51:00.779Z,101288.20
2018-12-31T20:53:30.529Z,101283.09
2018-12-31T20:56:19.111Z,101279.84
2018-12-31T20:59:08.323Z,101279.34
2018-12-31T21:01:37.774Z,101279.34
2018-12-31T21:04:07.489Z,101280.36
2018-12-31T21:09:25.395Z,101275.03
2018-12-31T21:11:55.240Z,101275.49
2018-12-31T21:14:24.712Z,101276.09
2018-12-31T21:16:54.199Z,101271.63
2018-12-31T21:19:23.663Z,101272.09
2018-12-31T21:22:12.911Z,101275.56
2018-12-31T21:25:02.175Z,101271.16
2018-12-31T21:27:52.715Z,101263.05
2018-12-31T21:30:22.222Z,101257.69
2018-12-31T21:32:51.694Z,101256.20
2018-12-31T21:35:40.319Z,101255.89
2018-12-31T21:38:09.781Z,101250.69
2018-12-31T21:40:39.249Z,101255.77
2018-12-31T21:43:28.065Z,101253.63
2018-12-31T21:45:57.534Z,101252.08
2018-12-31T21:48:46.677Z,101250.56
2018-12-31T21:51:16.150Z,101245.23
2018-12-31T21:57:06.798Z,101241.30
2018-12-31T21:59:55.601Z,101238.35
2018-12-31T22:08:47.236Z,101229.09
2018-12-31T22:11:36.074Z,101226.14
2018-12-31T22:14:24.962Z,101220.56
2018-12-31T22:17:13.536Z,101222.14
2018-12-31T22:19:43.027Z,101221.69
2018-12-31T22:22:12.485Z,101216.47
2018-12-31T22:24:41.955Z,101210.86
2018-12-31T22:30:19.212Z,101211.95
2018-12-31T22:41:27.294Z,101191.73
2018-12-31T22:44:16.133Z,101189.66
2018-12-31T22:46:45.605Z,101184.55
2018-12-31T22:49:15.063Z,101184.42
2018-12-31T22:52:03.633Z,101185.81
2018-12-31T22:54:33.424Z,101180.55
2018-12-31T22:57:22.078Z,101176.45
2018-12-31T22:59:51.554Z,101178.30
2018-12-31T23:02:21.041Z,101171.58
2018-12-31T23:05:10.248Z,101165.66
2018-12-31T23:08:19.808Z,101168.39
2018-12-31T23:10:49.596Z,101166.53
2018-12-31T23:13:19.403Z,101170.47
2018-12-31T23:15:48.868Z,101161.84
2018-12-31T23:18:18.320Z,101155.98
2018-12-31T23:23:50.395Z,101151.86
2018-12-31T23:26:40.972Z,101148.73
2018-12-31T23:29:30.197Z,101147.39
2018-12-31T23:32:00.018Z,101144.45
2018-12-31T23:34:29.818Z,101149.26
2018-12-31T23:36:59.288Z,101142.31
2018-12-31T23:39:30.393Z,101135.70
2018-12-31T23:41:59.856Z,101131.98
2018-12-31T23:44:53.088Z,101136.51
2018-12-31T23:47:40.956Z,101125.84
2018-12-31T23:50:31.509Z,101132.51
2018-12-31T23:53:00.979Z,101120.82
2018-12-31T23:55:30.448Z,101130.70
2018-12-31T23:57:59.901Z,101118.96
